MapTableWeb Map

Choose a state:
Locations above flood stage
(103 streamgages are currently reporting water levels above the National Weather Service defined flood stage)
USGS
station
ID
USGS station name NWS
flood
stage
(ft)
Most recent
stage
(ft)
Most recent
flow
(cfs)
Historical
peaks
(cfs)
Most recent
local
date/time
NWS
station
ID
02244040ST. JOHNS R AT BUFFALO BLUFF NEAR SATSUMA, FL 2.5 9.84 8,890 26,300 2015-06-29 23:15:00 PALF1
02244440DUNNS CREEK NEAR SATSUMA, FL 2.5 9.93 2,060 10,600 2015-06-29 23:00:00 DNSF1
08062700Trinity Rv at Trinidad, TX 33 41.51 28,400 94,500 2015-06-29 23:00:00 TDDT2
08067000Trinity Rv at Liberty, TX 26 28.07 39,300 135,000 2015-06-29 22:15:00 LBYT2
08065000Trinity Rv nr Oakwood, TX 35 38.65 30,200 180,000 2015-06-29 22:30:00 LOLT2
08177520Guadalupe Rv nr Bloomington, TX 20 23.99 4,600 4,660 2015-06-29 22:00:00 DUPT2
06471000JAMES R AT COLUMBIA,SD 13 14.36 Bkw 9,620 2015-06-29 22:15:00 CMBS2
08030500Sabine Rv nr Ruliff, TX 24 24.19 16,700 121,000 2015-06-29 22:45:00 DWYT2
07336820Red River near De Kalb, TX 24 28.19 67,500 279,000 2015-06-29 22:00:00 DEKT2
06472000JAMES R NEAR STRATFORD,SD 14 14.84 1,250 9,910 2015-06-29 22:45:00 SFDS2
08067100Trinity Rv nr Moss Bluff, TX 12.2 14.05

 

  2015-06-29 22:30:00 MBFT2
06884700BIG BLUE R AT BLUE RAPIDS, KS 26 26.38

 

  2015-06-29 22:00:00 BLRK1
05518000KANKAKEE RIVER AT SHELBY, IN 9 10.91 4,510 7,650 2015-06-29 22:45:00 SLBI3
05522500IROQUOIS RIVER AT RENSSELAER, IN 12 12.42 1,560 2,660 2015-06-29 22:30:00 RZLI3
07020500Mississippi River at Chester, IL 27 38.75 680,000 1,060,000 2015-06-29 23:00:00 CHSI2
03340500WABASH RIVER AT MONTEZUMA, IN 14 25.47 67,200 230,000 2015-06-29 22:45:00 MTZI3
03336000WABASH RIVER AT COVINGTON, IN 16 25.38 51,800 200,000 2015-06-29 22:45:00 CVGI3
05524500IROQUOIS RIVER NEAR FORESMAN, IN 18 21.51 4,030 6,480 2015-06-29 22:45:00 FSMI3
03341500WABASH RIVER AT TERRE HAUTE, IN 14 22.29 64,000 245,000 2015-06-29 23:00:00 HUFI3
03342000WABASH RIVER AT RIVERTON, IN 15 23.07 68,200 250,000 2015-06-29 23:00:00 RVTI3
02246500ST. JOHNS RIVER AT JACKSONVILLE, FL 2.5 11.05 -132,000 120,000 2015-06-29 23:00:00 SJLF1
06895500Missouri River at Waverly, MO 20 21.20 131,000 633,000 2015-06-29 22:30:00 WVYM7
03335500WABASH RIVER AT LAFAYETTE, IN 11 21.09 54,700 190,000 2015-06-29 23:00:00 LAFI3
05587450Mississippi River at Grafton, IL 18 29.38

 

598,000 2015-06-29 23:00:00 GRFI2
05587060ILLINOIS RIVER AT HARDIN, IL 25 36.43

 

  2015-06-29 22:00:00 HARI2
05586100ILLINOIS RIVER AT VALLEY CITY, IL 14 26.44 106,000 123,000 2015-06-29 22:00:00 VALI2
05558300ILLINOIS RIVER AT HENRY, IL 23 30.34 72,100 161,000 2015-06-29 21:45:00 HNYI2
06935965Missouri River at St. Charles, MO 25 29.54 309,000 409,000 2015-06-29 23:00:00 SCLM7
07020850Mississippi River at Cape Girardeau, MO 32 42.11

 

  2015-06-29 23:00:00 CPGM7
05585500ILLINOIS RIVER AT MEREDOSIA, IL 17 28.34

 

123,000 2015-06-29 22:00:00 MROI2
07010000Mississippi River at St. Louis, MO 30 37.82 682,000 1,080,000 2015-06-29 23:00:00 EADM7
05595000KASKASKIA RIVER AT NEW ATHENS, IL 79 85.47 14,900 83,000 2015-06-29 21:45:00 NASI2
08057000Trinity Rv at Dallas, TX 30 33.46 12,200 184,000 2015-06-29 22:00:00 DALT2
08055500Elm Fk Trinity Rv nr Carrollton, TX 8 8.73 7,730 145,000 2015-06-29 22:15:00 CART2
05599490BIG MUDDY RIVER AT RTE 127 AT MURPHYSBORO, IL 22 27.67 10,400 42,400 2015-06-29 21:30:00 MURI2
03381495LITTLE WABASH RIVER AT MAIN ST AT CARMI, IL 27 34.23

 

  2015-06-29 21:30:00 CARI2
03343010WABASH RIVER AT MEMORIAL BRIDGE AT VINCENNES, IN 16 22.32 65,200 97,800 2015-06-29 22:45:00 VCNI3
03346500EMBARRAS RIVER AT LAWRENCEVILLE, IL 30 34.36 16,200 47,500 2015-06-29 21:45:00 LAWI2
08018500Sabine Rv nr Mineola, TX 14 17.14 4,420 76,000 2015-06-29 22:15:00 MLAT2
03374000WHITE RIVER AT PETERSBURG, IN 16 18.32 36,400 235,000 2015-06-29 22:30:00 PTRI3
08040600Neches Rv nr Town Bluff, TX 64 67.16 17,300 120,000 2015-06-29 22:00:00 TBFT2
03374100WHITE RIVER AT HAZLETON, IN 16 19.99 42,000 138,000 2015-06-29 22:45:00 HZNI3
03377500WABASH RIVER AT MT. CARMEL, IL 19 25.69 126,000 428,000 2015-06-29 22:45:00 MCRI2
03378500WABASH RIVER AT NEW HARMONY, IN 15 18.73 139,000   2015-06-29 22:30:00 NHRI3
05498150Middle Fabius River near Ewing, MO 12 19.55 9,150 18,000 2015-06-29 22:30:00 EWMM7
05497150North Fabius River near Ewing, MO 11 15.69 7,520 18,400 2015-06-29 22:30:00 EWNM7
05500000South Fabius River near Taylor, MO 9.5 16.46 15,900 19,700 2015-06-29 22:30:00 TAYM7
03376500PATOKA RIVER NEAR PRINCETON, IN 18 19.04 4,370 18,700 2015-06-29 22:45:00 PNTI3
05453100Iowa River at Marengo, IA 14 15.92 8,920 51,000 2015-06-29 23:00:00 MROI4
05585000LA MOINE RIVER AT RIPLEY, IL 22 26.01 13,500 37,200 2015-06-29 21:45:00 RIPI2
05584500LA MOINE RIVER AT COLMAR, IL 20 21.64 5,170 38,900 2015-06-29 21:45:00 CLMI2
03373980WHITE RIVER ABOVE PETERSBURG, IN 16 17.93 34,700   2015-06-29 22:30:00 PETI3
07022000Mississippi River at Thebes, IL 33 41.17 701,000 1,075,000 2015-06-29 23:00:00 THBI2
06909000Missouri River at Boonville, MO 21 23.61 196,000 755,000 2015-06-29 22:30:00 BOZM7
06906500Missouri River at Glasgow, MO 25 25.91 177,000 322,000 2015-06-29 22:30:00 GLZM7
06908000Blackwater River at Blue Lick, MO 24 29.49 Bkw 54,000 2015-06-29 22:45:00 BLVM7
06918250Osage River at Taberville, MO 21 24.78 17,700 42,100 2015-06-29 21:45:00 TBVM7
05465000Cedar River near Conesville, IA 13 13.47 23,600 127,000 2015-06-29 23:00:00 CNEI4
06910450Missouri River at Jefferson City, MO 23 25.19 238,000 2015-06-29 22:45:00 JFFM7
06935450Missouri River at Washington, MO 20 23.26 264,000 2015-06-29 22:45:00 WHGM7
05583000SANGAMON RIVER NEAR OAKFORD, IL 18.12 19.87 35,500 123,000 2015-06-29 21:45:00 OKFI2
03324300SALAMONIE RIVER NEAR WARREN, IN 12 14.03 9,000 13,500 2015-06-29 22:45:00 WRNI3
03328000EEL RIVER AT NORTH MANCHESTER, IN 9 9.49 2,680 10,400 2015-06-29 22:30:00 NMCI3
04181500ST. MARYS RIVER AT DECATUR, IN 17 20.21 6,190 15,000 2015-06-29 22:00:00 DCRI3
03350800WHITE RIVER AT 146TH ST NEAR NOBLESVILLE, IN 13 14.83 13,300 24,700 2015-06-29 23:00:00 WHNI3
04182900MAUMEE RIVER AT FORT WAYNE, IN 17 20.43 15,800 18,400 2015-06-29 23:00:00 FTWI3
04182950MAUMEE RIVER AT COLISEUM BLVD AT FORT WAYNE, IN 17 20.99 17,200 21,800 2015-06-29 22:15:00 COMI3
03351000WHITE RIVER NEAR NORA, IN 11 13.71 15,400 58,500 2015-06-29 23:00:00 NORI3
03354000WHITE RIVER NEAR CENTERTON, IN 12 14.56 22,500 90,000 2015-06-29 22:00:00 CNTI3
04183000MAUMEE RIVER AT NEW HAVEN, IN 17 21.33 18,900 26,600 2015-06-29 22:30:00 NHVI3
04182000ST. MARYS RIVER NEAR FORT WAYNE, IN 14 15.34 8,190 16,000 2015-06-29 22:30:00 SASI3
03351060WHITE RIVER AT BROAD RIPPLE, IN 6 6.94

 

  2015-06-29 23:00:00 BRDI3
04185000Tiffin River at Stryker OH 11 16.92 6,400 8,290 2015-06-29 23:00:00 STRO1
04184500Bean Creek at Powers OH 15 17.31 2,470 4,900 2015-06-30 00:00:00 BCRO1
07344370Red River at Spring Bank, AR 37 37.76 131,000 140,000 2015-06-29 22:30:00 SBFA4
03351201WHITE RIVER AT INDIANAPOLIS MUSEUM OF ART, IN 12 14.31

 

27,700 2015-06-29 23:00:00 IMAI3
04178000ST. JOSEPH RIVER NEAR NEWVILLE, IN 12 14.34 4,440 10,400 2015-06-29 22:30:00 NVLI3
04195500Portage River at Woodville OH 9 13.13 9,950 17,000 2015-06-29 23:30:00 WDVO1
04193500Maumee River at Waterville OH 11 13.98 94,400 180,000 2015-06-30 00:00:00 WTVO1
03322900WABASH RIVER AT LINN GROVE, IN 11 12.34 5,300 14,500 2015-06-29 22:45:00 LYNI3
03360500WHITE RIVER AT NEWBERRY, IN 13 15.06 21,100 138,000 2015-06-29 22:30:00 NWBI3
04189260Blanchard River at Ottawa OH 23 24.94 6,620 15,000 2015-06-29 23:30:00 OTTO1
03357000WHITE RIVER AT SPENCER, IN 14 17.31

 

100,000 2015-06-29 22:30:00 SPNI3
03334000WILDCAT CREEK AT OWASCO, IN 9 9.88 6,150 19,300 2015-06-29 22:15:00 OWCI3
03351071WHITE RIVER BELOW DAM AT BROAD RIPPLE, IN 8.5 11.89

 

  2015-06-29 22:00:00 BBDI3
03363000DRIFTWOOD RIVER NEAR EDINBURGH, IN 11 12.46 10,100 40,500 2015-06-29 22:30:00 DREI3
04191500Auglaize River near Defiance OH 21 22.04 37,100 120,000 2015-06-29 23:15:00 DFCO1
05472500North Skunk River near Sigourney, IA 16 18.32 5,600 27,500 2015-06-29 22:30:00 SIGI4
03365500EAST FORK WHITE RIVER AT SEYMOUR, IN 12 13.69 10,300 120,000 2015-06-29 22:45:00 SERI3
03331500TIPPECANOE RIVER NEAR ORA, IN 12 12.04 3,010 9,580 2015-06-29 22:30:00 ORAI3
07019130Meramec River at Valley Park, MO 16 16.46

 

2015-06-29 22:30:00 VLLM7
03325000WABASH RIVER AT WABASH, IN 14 17.17 16,100 90,000 2015-06-29 22:30:00 WABI3
05592100KASKASKIA RIVER NEAR COWDEN, IL 15 15.78 5,450 25,300 2015-06-29 21:30:00 CWDI2
03324500SALAMONIE RIVER AT DORA, IN 11 11.69

 

16,500 2015-06-29 22:15:00 SALI3
05520500KANKAKEE RIVER AT MOMENCE, IL 5 5.38 8,490 16,000 2015-06-29 21:45:00 MOMI2
05526000IROQUOIS RIVER NEAR CHEBANSE, IL 16 16.28 18,300 34,000 2015-06-29 21:45:00 CHBI2
03335000WILDCAT CREEK NEAR LAFAYETTE, IN 10 13.42 8,920 25,000 2015-06-29 22:45:00 LYTI3
05527500KANKAKEE RIVER NEAR WILMINGTON, IL 6.5 6.68 33,100 75,900 2015-06-29 21:45:00 WLMI2
05466500EDWARDS RIVER NEAR NEW BOSTON, IL 17 18.53 1,430 18,000 2015-06-29 21:30:00 NWBI2
06407500SPRING CR NEAR KEYSTONE,SD 7 7.12 429 913 2015-06-29 21:45:00 KSTS2
02208450ALCOVY RIVER ABOVE COVINGTON, GA 12 18.79 93 7,620 2015-06-30 00:00:00 ACYG1
03122500Tuscarawas River below Dover Dam near Dover OH 7.5 7.50

 

62,000 2015-06-29 23:00:00 DVLO1
04212100Grand River near Painesville OH 8 8.29 6,920 35,000 2015-06-29 22:00:00 PNVO1